createdAt,value
2018-03-21T00:02:02.734Z,5.25
2018-03-21T00:04:30.171Z,5.85
2018-03-21T00:06:57.608Z,5.75
2018-03-21T00:09:25.102Z,5.05
2018-03-21T00:12:12.021Z,4.75
2018-03-21T00:14:40.303Z,4.20
2018-03-21T00:17:07.732Z,3.55
2018-03-21T00:19:35.289Z,3.80
2018-03-21T00:22:02.735Z,3.53
2018-03-21T00:24:30.172Z,4.00
2018-03-21T00:26:57.672Z,3.50
2018-03-21T00:29:25.110Z,3.70
2018-03-21T00:31:52.577Z,3.92
2018-03-21T00:34:31.088Z,3.35
2018-03-21T00:36:58.558Z,3.97
2018-03-21T00:39:25.996Z,3.97
2018-03-21T00:41:53.684Z,3.67
2018-03-21T00:44:21.182Z,3.92
2018-03-21T00:46:48.634Z,3.75
2018-03-21T00:49:16.074Z,4.12
2018-03-21T00:51:44.301Z,4.20
2018-03-21T00:54:11.756Z,4.20
2018-03-21T00:56:39.218Z,3.60
2018-03-21T00:59:06.753Z,4.25
2018-03-21T01:01:34.204Z,3.37
2018-03-21T01:04:02.933Z,4.40
2018-03-21T01:06:30.377Z,3.62
2018-03-21T01:08:57.822Z,4.00
2018-03-21T01:11:25.293Z,4.20
2018-03-21T01:13:52.724Z,3.80
2018-03-21T01:16:20.293Z,4.03
2018-03-21T01:18:48.505Z,4.10
2018-03-21T01:21:15.952Z,4.37
2018-03-21T01:23:43.443Z,4.55
2018-03-21T01:26:11.655Z,3.70
2018-03-21T01:28:39.089Z,3.65
2018-03-21T01:31:06.680Z,4.07
2018-03-21T01:33:34.129Z,3.95
2018-03-21T01:36:01.603Z,4.45
2018-03-21T01:38:29.102Z,4.07
2018-03-21T01:40:57.312Z,4.05
2018-03-21T01:43:24.759Z,4.05
2018-03-21T01:45:52.288Z,4.28
2018-03-21T01:48:19.757Z,5.18
2018-03-21T01:50:47.995Z,5.05
2018-03-21T01:53:15.429Z,4.40
2018-03-21T01:55:42.902Z,4.45
2018-03-21T01:58:10.344Z,4.60
2018-03-21T02:00:38.007Z,4.57
2018-03-21T02:03:05.453Z,4.20
2018-03-21T02:05:32.917Z,4.50
2018-03-21T02:08:00.364Z,4.65
2018-03-21T02:10:27.831Z,4.03
2018-03-21T02:12:55.481Z,3.90
2018-03-21T02:15:22.922Z,4.53
2018-03-21T02:17:50.361Z,4.20
2018-03-21T02:20:17.907Z,4.25
2018-03-21T02:25:35.994Z,4.30
2018-03-21T02:28:03.444Z,4.00
2018-03-21T02:30:31.748Z,4.20
2018-03-21T02:33:01.106Z,4.30
2018-03-21T02:35:28.589Z,4.55
2018-03-21T02:37:56.797Z,4.18
2018-03-21T02:40:24.245Z,4.62
2018-03-21T02:42:51.718Z,4.35
2018-03-21T02:45:22.997Z,4.25
2018-03-21T02:47:50.430Z,4.50
2018-03-21T02:50:17.879Z,4.45
2018-03-21T02:52:45.330Z,4.43
2018-03-21T02:55:12.802Z,4.60
2018-03-21T02:57:40.248Z,4.53
2018-03-21T03:00:07.695Z,4.35
2018-03-21T03:02:35.303Z,4.65
2018-03-21T03:05:02.749Z,5.32
2018-03-21T03:07:30.189Z,4.90
2018-03-21T03:09:57.657Z,4.62
2018-03-21T03:12:25.096Z,3.95
2018-03-21T03:14:53.670Z,4.60
2018-03-21T03:17:21.112Z,4.72
2018-03-21T03:19:48.580Z,4.57
2018-03-21T03:22:16.022Z,4.65
2018-03-21T03:24:43.644Z,4.05
2018-03-21T03:27:11.093Z,4.22
2018-03-21T03:29:42.247Z,4.35
2018-03-21T03:32:09.688Z,3.62
2018-03-21T03:34:37.140Z,3.97
2018-03-21T03:37:04.669Z,4.62
2018-03-21T03:39:32.116Z,3.72
2018-03-21T03:42:10.280Z,4.60
2018-03-21T03:44:37.733Z,4.10
2018-03-21T03:47:05.250Z,4.10
2018-03-21T03:49:32.711Z,4.62
2018-03-21T03:52:00.159Z,4.75
2018-03-21T03:54:28.386Z,4.82
2018-03-21T03:56:55.844Z,4.97
2018-03-21T03:59:23.308Z,4.53
2018-03-21T04:01:50.748Z,4.78
2018-03-21T04:04:18.302Z,4.75
2018-03-21T04:06:45.757Z,4.85
2018-03-21T04:09:19.343Z,5.30
2018-03-21T04:11:46.778Z,4.70
2018-03-21T04:14:14.993Z,4.80
2018-03-21T04:16:43.005Z,4.90
2018-03-21T04:19:10.441Z,4.78
2018-03-21T04:21:37.876Z,5.00
2018-03-21T04:24:05.526Z,5.28
2018-03-21T04:26:32.976Z,4.85
2018-03-21T04:29:00.445Z,4.65
2018-03-21T04:31:27.930Z,4.60
2018-03-21T04:33:55.378Z,5.57
2018-03-21T04:36:32.161Z,5.20
2018-03-21T04:38:59.629Z,4.82
2018-03-21T04:41:27.066Z,5.28
2018-03-21T04:43:54.657Z,5.40
2018-03-21T04:46:22.097Z,4.95
2018-03-21T04:48:49.561Z,4.87
2018-03-21T04:51:17.035Z,4.68
2018-03-21T04:53:44.478Z,4.95
2018-03-21T04:56:11.916Z,5.18
2018-03-21T04:58:49.300Z,5.28
2018-03-21T05:01:16.739Z,5.22
2018-03-21T05:03:45.568Z,4.85
2018-03-21T05:06:13.015Z,5.40
2018-03-21T05:08:40.466Z,5.43
2018-03-21T05:11:07.929Z,5.40
2018-03-21T05:13:35.676Z,5.68
2018-03-21T05:16:03.125Z,5.62
2018-03-21T05:18:52.634Z,6.07
2018-03-21T05:21:20.076Z,5.45
2018-03-21T05:23:47.525Z,5.20
2018-03-21T05:26:14.991Z,5.35
2018-03-21T05:28:42.445Z,5.53
2018-03-21T05:31:09.889Z,5.10
2018-03-21T05:33:37.329Z,5.47
2018-03-21T05:36:04.856Z,5.10
2018-03-21T05:38:33.065Z,5.57
2018-03-21T05:41:00.548Z,5.12
2018-03-21T05:43:27.995Z,6.43
2018-03-21T05:45:59.385Z,5.68
2018-03-21T05:48:30.445Z,5.72
2018-03-21T05:50:58.649Z,5.57
2018-03-21T05:53:26.088Z,5.28
2018-03-21T05:55:54.496Z,5.75
2018-03-21T05:58:21.950Z,5.60
2018-03-21T06:00:49.393Z,5.80
2018-03-21T06:03:38.820Z,5.90
2018-03-21T06:06:06.268Z,4.68
2018-03-21T06:08:33.814Z,5.50
2018-03-21T06:11:01.434Z,6.00
2018-03-21T06:13:29.876Z,6.70
2018-03-21T06:15:57.505Z,6.90
2018-03-21T06:18:24.945Z,6.70
2018-03-21T06:20:54.616Z,6.43
2018-03-21T06:23:22.053Z,5.70
2018-03-21T06:25:49.600Z,6.72
2018-03-21T06:28:17.805Z,6.87
2018-03-21T06:30:45.250Z,6.87
2018-03-21T06:33:12.717Z,6.80
2018-03-21T06:35:40.168Z,7.30
2018-03-21T06:38:09.031Z,6.35
2018-03-21T06:43:14.580Z,6.90
2018-03-21T06:45:42.070Z,8.07
2018-03-21T06:48:09.514Z,7.28
2018-03-21T06:50:36.961Z,7.37
2018-03-21T06:53:04.456Z,6.35
2018-03-21T06:55:31.903Z,6.57
2018-03-21T06:57:59.369Z,6.80
2018-03-21T07:00:26.814Z,6.35
2018-03-21T07:02:54.278Z,6.18
2018-03-21T07:05:21.748Z,6.68
2018-03-21T07:07:49.184Z,5.55
2018-03-21T07:10:16.629Z,6.20
2018-03-21T07:12:44.181Z,7.50
2018-03-21T07:15:23.357Z,7.75
2018-03-21T07:17:50.957Z,7.60
2018-03-21T07:20:18.398Z,6.78
2018-03-21T07:22:46.828Z,8.07
2018-03-21T07:25:14.302Z,8.20
2018-03-21T07:27:41.744Z,8.35
2018-03-21T07:30:10.118Z,11.70
2018-03-21T07:32:37.605Z,10.25
2018-03-21T07:35:05.101Z,8.30
2018-03-21T07:37:32.561Z,9.73
2018-03-21T07:40:00.387Z,10.45
2018-03-21T07:42:27.830Z,10.00
2018-03-21T07:44:55.279Z,10.32
2018-03-21T07:47:22.745Z,9.50
2018-03-21T07:49:50.209Z,10.35
2018-03-21T07:52:17.686Z,19.52
2018-03-21T07:54:46.705Z,10.98
2018-03-21T07:57:14.393Z,11.57
2018-03-21T07:59:41.842Z,10.50
2018-03-21T08:02:09.320Z,11.25
2018-03-21T08:04:36.803Z,10.10
2018-03-21T08:07:04.243Z,14.05
2018-03-21T08:09:31.680Z,13.73
2018-03-21T08:11:59.277Z,8.40
2018-03-21T08:14:26.740Z,7.78
2018-03-21T08:16:54.171Z,14.50
2018-03-21T08:19:21.619Z,7.80
2018-03-21T08:21:50.345Z,6.68
2018-03-21T08:24:17.785Z,7.70
2018-03-21T08:26:45.218Z,7.20
2018-03-21T08:29:12.748Z,7.32
2018-03-21T08:31:40.229Z,7.62
2018-03-21T08:34:07.679Z,8.40
2018-03-21T08:36:35.204Z,8.80
2018-03-21T08:39:03.439Z,8.90
2018-03-21T08:41:30.874Z,7.45
2018-03-21T08:43:58.315Z,8.50
2018-03-21T08:46:25.949Z,8.60
2018-03-21T08:48:53.397Z,10.40
2018-03-21T08:51:20.829Z,10.00
2018-03-21T08:53:48.367Z,9.88
2018-03-21T08:56:15.792Z,8.93
2018-03-21T08:58:43.999Z,9.48
2018-03-21T09:01:11.469Z,10.30
2018-03-21T09:03:38.922Z,10.15
2018-03-21T09:06:06.361Z,9.07
2018-03-21T09:08:34.166Z,10.98
2018-03-21T09:11:01.610Z,11.70
2018-03-21T09:13:29.132Z,12.90
2018-03-21T09:15:56.582Z,14.38
2018-03-21T09:18:24.825Z,17.48
2018-03-21T09:20:52.256Z,18.85
2018-03-21T09:23:19.688Z,22.25
2018-03-21T09:25:47.496Z,25.88
2018-03-21T09:28:14.956Z,27.27
2018-03-21T09:30:42.399Z,31.02
2018-03-21T09:33:09.865Z,29.95
2018-03-21T09:35:37.331Z,31.58
2018-03-21T09:38:04.833Z,36.03
2018-03-21T09:40:33.052Z,37.38
2018-03-21T09:43:00.576Z,37.00
2018-03-21T09:45:28.023Z,38.20
2018-03-21T09:47:55.492Z,37.88
2018-03-21T09:50:22.947Z,38.40
2018-03-21T09:52:50.433Z,40.97
2018-03-21T09:55:17.951Z,38.45
2018-03-21T09:57:45.437Z,40.40
2018-03-21T10:00:12.880Z,38.60
2018-03-21T10:02:40.385Z,37.63
2018-03-21T10:05:07.827Z,36.85
2018-03-21T10:07:35.274Z,35.65
2018-03-21T10:10:02.736Z,35.92
2018-03-21T10:12:30.178Z,32.08
2018-03-21T10:15:00.178Z,38.28
2018-03-21T10:17:28.386Z,40.97
2018-03-21T10:19:55.895Z,35.05
2018-03-21T10:22:23.329Z,37.55
2018-03-21T10:24:50.798Z,37.72
2018-03-21T10:27:18.253Z,39.10
2018-03-21T10:29:46.113Z,38.40
2018-03-21T10:32:13.569Z,37.65
2018-03-21T10:34:41.012Z,36.53
2018-03-21T10:37:08.506Z,34.13
2018-03-21T10:39:36.720Z,37.28
2018-03-21T10:42:04.165Z,37.42
2018-03-21T10:44:31.645Z,37.72
2018-03-21T10:46:59.092Z,36.13
2018-03-21T10:49:26.624Z,39.10
2018-03-21T10:51:54.837Z,40.38
2018-03-21T10:54:22.333Z,39.25
2018-03-21T10:56:49.776Z,37.05
2018-03-21T10:59:17.226Z,38.00
2018-03-21T11:01:44.724Z,38.63
2018-03-21T11:04:12.960Z,37.30
2018-03-21T11:06:40.406Z,38.00
2018-03-21T11:09:07.854Z,38.13
2018-03-21T11:11:35.347Z,36.80
2018-03-21T11:14:03.002Z,36.00
2018-03-21T11:16:30.535Z,37.58
2018-03-21T11:18:58.756Z,37.50
2018-03-21T11:21:26.224Z,36.72
2018-03-21T11:23:53.652Z,36.13
2018-03-21T11:26:21.116Z,35.65
2018-03-21T11:28:48.565Z,36.15
2018-03-21T11:31:16.111Z,31.48
2018-03-21T11:33:43.556Z,24.20
2018-03-21T11:36:11.012Z,22.17
2018-03-21T11:38:38.453Z,19.58
2018-03-21T11:41:05.922Z,21.02
2018-03-21T11:43:33.363Z,18.60
2018-03-21T11:46:00.953Z,19.85
2018-03-21T11:48:28.772Z,21.62
2018-03-21T11:50:56.975Z,22.62
2018-03-21T11:53:24.412Z,21.33
2018-03-21T11:55:52.661Z,21.70
2018-03-21T11:58:20.108Z,20.17
2018-03-21T12:00:47.552Z,19.80
2018-03-21T12:03:15.318Z,19.62
2018-03-21T12:05:42.761Z,19.30
2018-03-21T12:08:10.210Z,19.58
2018-03-21T12:10:38.005Z,22.27
2018-03-21T12:13:05.461Z,20.95
2018-03-21T12:15:32.962Z,20.80
2018-03-21T12:18:00.727Z,21.77
2018-03-21T12:20:28.933Z,21.90
2018-03-21T12:22:56.404Z,20.12
2018-03-21T12:25:23.838Z,20.60
2018-03-21T12:27:51.304Z,19.08
2018-03-21T12:30:18.753Z,14.82
2018-03-21T12:32:46.380Z,15.75
2018-03-21T12:35:13.811Z,16.90
2018-03-21T12:37:41.250Z,17.10
2018-03-21T12:40:08.708Z,16.83
2018-03-21T12:42:36.197Z,16.55
2018-03-21T12:45:03.636Z,16.45
2018-03-21T12:47:31.079Z,16.45
2018-03-21T12:50:02.318Z,15.57
2018-03-21T12:52:29.757Z,15.57
2018-03-21T12:54:57.230Z,15.63
2018-03-21T12:57:24.669Z,14.77
2018-03-21T12:59:52.120Z,16.30
2018-03-21T13:02:19.605Z,14.93
2018-03-21T13:04:47.588Z,16.60
2018-03-21T13:07:15.027Z,16.17
2018-03-21T13:09:42.481Z,16.00
2018-03-21T13:12:09.941Z,16.48
2018-03-21T13:14:37.510Z,14.80
2018-03-21T13:17:04.970Z,14.27
2018-03-21T13:19:32.409Z,14.43
2018-03-21T13:22:00.007Z,13.27
2018-03-21T13:24:27.449Z,12.68
2018-03-21T13:26:54.889Z,13.02
2018-03-21T13:29:22.352Z,13.30
2018-03-21T13:31:49.818Z,12.07
2018-03-21T13:34:17.714Z,13.65
2018-03-21T13:36:45.162Z,13.00
2018-03-21T13:39:12.772Z,13.70
2018-03-21T13:41:40.212Z,12.60
2018-03-21T13:44:08.443Z,13.60
2018-03-21T13:46:35.918Z,13.65
2018-03-21T13:49:03.380Z,13.48
2018-03-21T13:51:30.849Z,14.20
2018-03-21T13:53:58.325Z,13.93
2018-03-21T13:56:26.594Z,13.45
2018-03-21T13:58:54.800Z,14.93
2018-03-21T14:01:22.268Z,13.95
2018-03-21T14:03:49.715Z,13.82
2018-03-21T14:06:17.385Z,13.07
2018-03-21T14:08:44.853Z,12.90
2018-03-21T14:11:12.301Z,13.85
2018-03-21T14:13:41.038Z,12.80
2018-03-21T14:16:08.544Z,12.45
2018-03-21T14:18:36.056Z,13.43
2018-03-21T14:21:03.612Z,13.10
2018-03-21T14:23:31.052Z,12.55
2018-03-21T14:25:58.540Z,11.32
2018-03-21T14:28:25.977Z,13.27
2018-03-21T14:30:53.456Z,13.40
2018-03-21T14:33:21.698Z,12.85
2018-03-21T14:35:54.054Z,12.45
2018-03-21T14:38:21.836Z,12.65
2018-03-21T14:40:49.290Z,14.57
2018-03-21T14:43:16.787Z,15.65
2018-03-21T14:45:44.218Z,16.75
2018-03-21T14:48:11.683Z,17.55
2018-03-21T14:50:39.282Z,17.90
2018-03-21T14:53:06.725Z,16.50
2018-03-21T14:55:34.205Z,17.98
2018-03-21T14:58:01.682Z,18.70
2018-03-21T15:00:29.123Z,19.27
2018-03-21T15:02:56.617Z,19.25
2018-03-21T15:05:24.822Z,19.52
2018-03-21T15:07:52.264Z,19.48
2018-03-21T15:10:19.824Z,19.50
2018-03-21T15:12:47.274Z,17.70
2018-03-21T15:15:14.715Z,18.42
2018-03-21T15:17:42.185Z,17.12
2018-03-21T15:20:09.631Z,18.35
2018-03-21T15:22:37.168Z,17.92
2018-03-21T15:25:04.612Z,18.02
2018-03-21T15:27:32.604Z,17.62
2018-03-21T15:30:00.100Z,16.85
2018-03-21T15:32:27.550Z,17.17
2018-03-21T15:34:55.006Z,17.98
2018-03-21T15:37:23.912Z,17.17
2018-03-21T15:39:51.501Z,16.27
2018-03-21T15:42:19.715Z,17.12
2018-03-21T15:44:47.341Z,17.30
2018-03-21T15:47:14.759Z,17.27
2018-03-21T15:49:42.229Z,17.42
2018-03-21T15:52:09.714Z,16.58
2018-03-21T15:54:37.152Z,17.02
2018-03-21T15:57:05.404Z,17.98
2018-03-21T15:59:32.877Z,17.60
2018-03-21T16:02:00.325Z,18.00
2018-03-21T16:04:27.825Z,17.98
2018-03-21T16:06:55.267Z,24.00
2018-03-21T16:09:23.914Z,17.15
2018-03-21T16:11:51.362Z,17.37
2018-03-21T16:14:18.820Z,17.33
2018-03-21T16:16:46.295Z,17.40
2018-03-21T16:19:13.786Z,17.55
2018-03-21T16:21:41.232Z,18.20
2018-03-21T16:24:09.442Z,18.73
2018-03-21T16:26:36.981Z,19.67
2018-03-21T16:29:05.289Z,19.55
2018-03-21T16:31:33.516Z,19.37
2018-03-21T16:34:01.741Z,20.05
2018-03-21T16:36:29.209Z,18.80
2018-03-21T16:38:58.347Z,18.70
2018-03-21T16:41:26.662Z,18.77
2018-03-21T16:43:54.108Z,20.52
2018-03-21T16:46:21.589Z,20.10
2018-03-21T16:48:49.956Z,20.17
2018-03-21T16:51:17.434Z,19.10
2018-03-21T16:53:44.937Z,20.62
2018-03-21T16:56:13.167Z,19.40
2018-03-21T16:58:44.437Z,20.17
2018-03-21T17:01:11.913Z,21.12
2018-03-21T17:03:39.384Z,20.50
2018-03-21T17:06:07.620Z,19.83
2018-03-21T17:08:35.119Z,19.55
2018-03-21T17:11:03.373Z,20.55
2018-03-21T17:13:30.832Z,22.35
2018-03-21T17:15:58.391Z,21.30
2018-03-21T17:18:25.831Z,18.40
2018-03-21T17:20:53.322Z,19.20
2018-03-21T17:23:21.570Z,19.75
2018-03-21T17:25:49.168Z,20.10
2018-03-21T17:28:16.721Z,18.95
2018-03-21T17:30:44.339Z,18.95
2018-03-21T17:33:11.787Z,19.65
2018-03-21T17:35:39.258Z,19.70
2018-03-21T17:38:06.696Z,19.87
2018-03-21T17:40:36.010Z,22.33
2018-03-21T17:43:04.303Z,21.00
2018-03-21T17:45:31.748Z,19.55
2018-03-21T17:47:59.317Z,20.10
2018-03-21T17:50:26.754Z,19.10
2018-03-21T17:52:54.408Z,18.55
2018-03-21T17:55:21.989Z,20.23
2018-03-21T17:57:49.650Z,20.30
2018-03-21T18:00:17.199Z,18.50
2018-03-21T18:02:44.669Z,18.40
2018-03-21T18:05:12.179Z,18.83
2018-03-21T18:07:39.623Z,17.73
2018-03-21T18:10:07.093Z,18.73
2018-03-21T18:12:34.760Z,17.65
2018-03-21T18:15:02.352Z,17.77
2018-03-21T18:17:29.790Z,20.65
2018-03-21T18:19:58.029Z,19.60
2018-03-21T18:22:25.493Z,21.62
2018-03-21T18:24:52.956Z,21.45
2018-03-21T18:27:20.415Z,21.70
2018-03-21T18:29:51.568Z,24.92
2018-03-21T18:32:19.785Z,25.67
2018-03-21T18:34:47.283Z,26.27
2018-03-21T18:37:14.737Z,27.45
2018-03-21T18:39:48.972Z,26.67
2018-03-21T18:42:17.285Z,25.45
2018-03-21T18:44:44.724Z,20.92
2018-03-21T18:47:13.005Z,20.92
2018-03-21T18:49:40.485Z,22.02
2018-03-21T18:52:07.925Z,21.90
2018-03-21T18:54:36.260Z,23.08
2018-03-21T18:57:05.030Z,22.45
2018-03-21T18:59:32.914Z,22.90
2018-03-21T19:02:11.301Z,22.67
2018-03-21T19:04:38.913Z,23.00
2018-03-21T19:07:22.260Z,22.60
2018-03-21T19:09:49.747Z,24.58
2018-03-21T19:12:17.188Z,26.62
2018-03-21T19:14:44.700Z,25.50
2018-03-21T19:17:12.556Z,25.73
2018-03-21T19:19:40.061Z,25.88
2018-03-21T19:22:09.289Z,31.25
2018-03-21T19:24:37.674Z,27.67
2018-03-21T19:27:11.364Z,28.35
2018-03-21T19:29:38.816Z,32.58
2018-03-21T19:32:06.293Z,30.55
2018-03-21T19:34:34.177Z,29.73
2018-03-21T19:37:13.804Z,34.70
2018-03-21T19:39:41.261Z,33.45
2018-03-21T19:42:08.698Z,33.22
2018-03-21T19:44:41.169Z,26.58
2018-03-21T19:47:08.626Z,28.35
2018-03-21T19:49:36.110Z,29.10
2018-03-21T19:52:03.553Z,27.92
2018-03-21T19:54:30.993Z,26.50
2018-03-21T19:56:58.473Z,24.73
2018-03-21T19:59:25.942Z,29.00
2018-03-21T20:01:53.380Z,27.00
2018-03-21T20:04:20.978Z,27.08
2018-03-21T20:09:49.750Z,29.45
2018-03-21T20:12:17.380Z,34.10
2018-03-21T20:14:44.876Z,27.00
2018-03-21T20:17:12.320Z,26.80
2018-03-21T20:19:45.039Z,29.20
2018-03-21T20:22:12.629Z,29.27
2018-03-21T20:24:45.149Z,29.10
2018-03-21T20:27:12.602Z,28.50
2018-03-21T20:29:50.001Z,26.95
2018-03-21T20:32:17.661Z,27.30
2018-03-21T20:34:45.111Z,29.30
2018-03-21T20:37:12.565Z,28.98
2018-03-21T20:39:42.022Z,30.85
2018-03-21T20:42:09.466Z,29.83
2018-03-21T20:44:38.600Z,28.17
2018-03-21T20:47:14.985Z,26.98
2018-03-21T20:49:42.578Z,28.50
2018-03-21T20:52:10.036Z,30.52
2018-03-21T20:54:38.276Z,27.90
2018-03-21T20:57:05.717Z,27.55
2018-03-21T20:59:33.198Z,30.98
2018-03-21T21:02:00.646Z,31.52
2018-03-21T21:04:28.082Z,29.52
2018-03-21T21:06:55.613Z,28.52
2018-03-21T21:09:23.853Z,29.65
2018-03-21T21:11:51.297Z,29.98
2018-03-21T21:14:18.885Z,27.45
2018-03-21T21:16:46.590Z,29.27
2018-03-21T21:19:14.036Z,29.58
2018-03-21T21:21:58.845Z,27.10
2018-03-21T21:24:27.076Z,28.70
2018-03-21T21:26:54.520Z,28.38
2018-03-21T21:29:24.744Z,26.65
2018-03-21T21:31:52.958Z,28.60
2018-03-21T21:34:22.437Z,26.80
2018-03-21T21:36:50.151Z,29.80
2018-03-21T21:39:19.115Z,29.55
2018-03-21T21:41:49.134Z,27.65
2018-03-21T21:44:17.148Z,29.33
2018-03-21T21:46:44.874Z,28.12
2018-03-21T21:49:12.419Z,28.10
2018-03-21T21:51:40.239Z,27.80
2018-03-21T21:54:08.830Z,28.15
2018-03-21T21:56:37.638Z,29.40
2018-03-21T21:59:05.397Z,28.45
2018-03-21T22:01:33.178Z,29.75
2018-03-21T22:04:00.981Z,27.48
2018-03-21T22:06:29.420Z,28.12
2018-03-21T22:08:57.087Z,27.23
2018-03-21T22:11:25.539Z,27.90
2018-03-21T22:13:53.275Z,26.98
2018-03-21T22:16:21.262Z,27.45
2018-03-21T22:18:49.539Z,26.05
2018-03-21T22:21:18.004Z,26.50
2018-03-21T22:23:45.996Z,26.58
2018-03-21T22:26:14.585Z,26.10
2018-03-21T22:28:42.168Z,26.87
2018-03-21T22:31:10.552Z,27.48
2018-03-21T22:33:38.010Z,27.60
2018-03-21T22:36:05.555Z,26.75
2018-03-21T22:38:33.017Z,26.52
2018-03-21T22:41:01.249Z,27.75
2018-03-21T22:43:28.712Z,27.62
2018-03-21T22:45:56.156Z,27.15
2018-03-21T22:48:23.745Z,27.25
2018-03-21T22:50:51.539Z,27.90
2018-03-21T22:53:19.228Z,27.90
2018-03-21T22:55:46.690Z,27.05
2018-03-21T22:58:14.288Z,26.35
2018-03-21T23:00:41.958Z,27.65
2018-03-21T23:03:09.504Z,26.55
2018-03-21T23:05:37.756Z,27.85
2018-03-21T23:08:05.243Z,27.33
2018-03-21T23:10:48.618Z,27.50
2018-03-21T23:13:16.097Z,27.62
2018-03-21T23:15:43.557Z,28.27
2018-03-21T23:18:11.108Z,26.77
2018-03-21T23:20:41.266Z,27.02
2018-03-21T23:23:09.370Z,27.40
2018-03-21T23:25:37.579Z,26.45
2018-03-21T23:28:05.049Z,27.65
2018-03-21T23:30:32.513Z,26.50
2018-03-21T23:32:59.986Z,28.38
2018-03-21T23:35:27.735Z,28.83
2018-03-21T23:37:55.281Z,28.33
2018-03-21T23:40:22.722Z,28.15
2018-03-21T23:42:50.199Z,29.42
2018-03-21T23:45:17.919Z,27.17
2018-03-21T23:47:46.129Z,28.55
2018-03-21T23:50:13.586Z,26.98
2018-03-21T23:52:41.058Z,28.70
2018-03-21T23:55:08.514Z,29.87
2018-03-21T23:57:35.995Z,27.92
